createdAt,value
2018-08-24T00:00:18.345Z,0.00
2018-08-24T00:01:18.278Z,0.00
2018-08-24T00:02:18.841Z,0.00
2018-08-24T00:03:18.139Z,0.00
2018-08-24T00:04:39.037Z,0.00
2018-08-24T00:05:17.992Z,0.00
2018-08-24T00:06:17.909Z,0.00
2018-08-24T00:07:17.884Z,0.00
2018-08-24T00:08:17.774Z,0.00
2018-08-24T00:09:17.703Z,0.00
2018-08-24T00:10:38.618Z,0.00
2018-08-24T00:11:17.567Z,0.00
2018-08-24T00:12:17.487Z,0.00
2018-08-24T00:13:17.418Z,0.00
2018-08-24T00:14:17.337Z,0.00
2018-08-24T00:15:17.276Z,0.00
2018-08-24T00:16:38.170Z,0.00
2018-08-24T00:17:17.130Z,0.00
2018-08-24T00:18:17.044Z,0.00
2018-08-24T00:19:16.985Z,0.00
2018-08-24T00:20:16.908Z,0.00
2018-08-24T00:21:16.834Z,0.00
2018-08-24T00:22:37.744Z,0.00
2018-08-24T00:23:16.696Z,0.00
2018-08-24T00:24:16.607Z,0.00
2018-08-24T00:25:16.551Z,0.00
2018-08-24T00:26:16.469Z,0.00
2018-08-24T00:27:16.400Z,0.00
2018-08-24T00:28:37.312Z,0.00
2018-08-24T00:29:16.264Z,0.00
2018-08-24T00:30:16.184Z,0.00
2018-08-24T00:31:16.116Z,0.00
2018-08-24T00:32:16.036Z,0.00
2018-08-24T00:33:15.969Z,0.00
2018-08-24T00:34:36.881Z,0.00
2018-08-24T00:35:15.816Z,0.00
2018-08-24T00:36:15.738Z,0.00
2018-08-24T00:37:15.684Z,0.00
2018-08-24T00:38:15.601Z,0.00
2018-08-24T00:39:15.533Z,0.00
2018-08-24T00:40:36.437Z,0.00
2018-08-24T00:41:15.395Z,0.00
2018-08-24T00:42:15.308Z,0.00
2018-08-24T00:43:15.250Z,0.00
2018-08-24T00:44:15.168Z,0.00
2018-08-24T00:45:15.103Z,0.00
2018-08-24T00:46:36.000Z,0.00
2018-08-24T00:47:14.951Z,0.00
2018-08-24T00:48:14.868Z,0.00
2018-08-24T00:49:14.863Z,0.00
2018-08-24T00:50:14.724Z,0.00
2018-08-24T00:51:14.668Z,0.00
2018-08-24T00:52:35.566Z,0.00
2018-08-24T00:53:14.518Z,0.00
2018-08-24T00:54:14.443Z,0.00
2018-08-24T00:55:14.370Z,0.00
2018-08-24T00:56:14.296Z,0.00
2018-08-24T00:57:14.223Z,0.00
2018-08-24T00:58:35.137Z,0.00
2018-08-24T00:59:14.089Z,0.00
2018-08-24T01:00:14.005Z,0.00
2018-08-24T01:01:13.940Z,0.00
2018-08-24T01:02:13.857Z,0.00
2018-08-24T01:03:13.790Z,0.00
2018-08-24T01:04:34.691Z,0.00
2018-08-24T01:05:13.645Z,0.00
2018-08-24T01:06:13.561Z,0.00
2018-08-24T01:07:13.505Z,0.00
2018-08-24T01:08:13.423Z,0.00
2018-08-24T01:09:13.358Z,0.00
2018-08-24T01:10:34.885Z,0.00
2018-08-24T01:11:13.206Z,0.00
2018-08-24T01:12:13.128Z,0.00
2018-08-24T01:13:13.076Z,0.00
2018-08-24T01:14:12.983Z,0.00
2018-08-24T01:15:12.923Z,0.00
2018-08-24T01:16:33.821Z,0.00
2018-08-24T01:17:12.775Z,0.00
2018-08-24T01:18:12.697Z,0.00
2018-08-24T01:19:12.626Z,0.00
2018-08-24T01:20:12.550Z,0.00
2018-08-24T01:21:12.490Z,0.00
2018-08-24T01:22:33.390Z,0.00
2018-08-24T01:23:12.342Z,0.00
2018-08-24T01:24:12.259Z,0.00
2018-08-24T01:25:12.195Z,0.00
2018-08-24T01:26:12.111Z,0.00
2018-08-24T01:27:12.042Z,0.00
2018-08-24T01:28:32.950Z,0.00
2018-08-24T01:29:11.890Z,0.00
2018-08-24T01:30:11.818Z,0.00
2018-08-24T01:31:11.743Z,0.00
2018-08-24T01:32:11.672Z,0.00
2018-08-24T01:33:11.609Z,0.00
2018-08-24T01:34:32.510Z,0.00
2018-08-24T01:35:11.464Z,0.00
2018-08-24T01:36:11.390Z,0.00
2018-08-24T01:37:11.310Z,0.00
2018-08-24T01:38:11.236Z,0.00
2018-08-24T01:39:11.167Z,0.00
2018-08-24T01:40:32.065Z,0.00
2018-08-24T01:41:11.017Z,0.00
2018-08-24T01:42:10.933Z,0.00
2018-08-24T01:43:10.882Z,0.00
2018-08-24T01:44:10.798Z,0.00
2018-08-24T01:45:10.731Z,0.00
2018-08-24T01:46:31.637Z,0.00
2018-08-24T01:47:10.585Z,0.00
2018-08-24T01:48:10.505Z,0.00
2018-08-24T01:49:10.437Z,0.00
2018-08-24T01:50:10.358Z,0.00
2018-08-24T01:51:10.284Z,0.00
2018-08-24T01:52:31.192Z,0.00
2018-08-24T01:53:10.140Z,0.00
2018-08-24T01:54:10.059Z,0.00
2018-08-24T01:55:10.004Z,0.00
2018-08-24T01:56:09.913Z,0.00
2018-08-24T01:57:09.854Z,0.00
2018-08-24T01:58:30.782Z,0.00
2018-08-24T01:59:09.769Z,0.00
2018-08-24T02:00:09.626Z,0.00
2018-08-24T02:01:09.573Z,0.00
2018-08-24T02:02:09.482Z,0.00
2018-08-24T02:03:09.415Z,0.00
2018-08-24T02:04:30.314Z,0.00
2018-08-24T02:05:09.271Z,0.00
2018-08-24T02:06:09.181Z,0.00
2018-08-24T02:07:09.127Z,0.00
2018-08-24T02:08:09.034Z,0.00
2018-08-24T02:09:08.975Z,0.00
2018-08-24T02:10:29.876Z,0.00
2018-08-24T02:11:08.826Z,0.00
2018-08-24T02:12:08.748Z,0.00
2018-08-24T02:13:08.681Z,0.00
2018-08-24T02:14:08.600Z,0.00
2018-08-24T02:15:08.544Z,0.00
2018-08-24T02:16:29.433Z,0.00
2018-08-24T02:17:08.386Z,0.00
2018-08-24T02:18:08.308Z,0.00
2018-08-24T02:19:08.244Z,0.00
2018-08-24T02:20:08.168Z,0.00
2018-08-24T02:21:08.097Z,0.00
2018-08-24T02:22:28.999Z,0.00
2018-08-24T02:23:07.948Z,0.00
2018-08-24T02:24:07.868Z,0.00
2018-08-24T02:25:07.814Z,0.00
2018-08-24T02:26:07.723Z,0.00
2018-08-24T02:27:07.654Z,0.00
2018-08-24T02:28:28.555Z,0.00
2018-08-24T02:29:07.510Z,0.00
2018-08-24T02:30:07.426Z,0.00
2018-08-24T02:31:07.392Z,0.00
2018-08-24T02:32:07.282Z,0.00
2018-08-24T02:33:07.226Z,0.00
2018-08-24T02:34:28.128Z,0.00
2018-08-24T02:35:07.077Z,0.00
2018-08-24T02:36:06.996Z,0.00
2018-08-24T02:37:06.925Z,0.00
2018-08-24T02:38:06.854Z,0.00
2018-08-24T02:39:06.779Z,0.00
2018-08-24T02:40:27.681Z,0.00
2018-08-24T02:41:06.627Z,0.00
2018-08-24T02:42:06.549Z,0.00
2018-08-24T02:43:06.495Z,0.00
2018-08-24T02:44:06.401Z,0.00
2018-08-24T02:45:06.393Z,0.00
2018-08-24T02:46:27.255Z,0.00
2018-08-24T02:47:06.195Z,0.00
2018-08-24T02:48:06.120Z,0.00
2018-08-24T02:49:06.047Z,0.00
2018-08-24T02:50:05.968Z,0.00
2018-08-24T02:51:05.900Z,0.00
2018-08-24T02:52:26.800Z,0.00
2018-08-24T02:53:05.754Z,0.00
2018-08-24T02:54:05.671Z,0.00
2018-08-24T02:55:05.612Z,0.00
2018-08-24T02:56:05.522Z,0.00
2018-08-24T02:57:05.456Z,0.00
2018-08-24T02:58:26.365Z,0.00
2018-08-24T02:59:05.316Z,0.00
2018-08-24T03:00:05.225Z,0.00
2018-08-24T03:01:05.168Z,0.00
2018-08-24T03:02:05.089Z,0.00
2018-08-24T03:03:05.019Z,0.00
2018-08-24T03:04:25.931Z,0.00
2018-08-24T03:05:04.904Z,0.00
2018-08-24T03:06:04.799Z,0.00
2018-08-24T03:07:04.729Z,0.00
2018-08-24T03:08:04.641Z,0.00
2018-08-24T03:09:04.579Z,0.00
2018-08-24T03:10:25.488Z,0.00
2018-08-24T03:11:04.425Z,0.00
2018-08-24T03:12:04.352Z,0.00
2018-08-24T03:13:04.289Z,0.00
2018-08-24T03:14:04.198Z,0.00
2018-08-24T03:15:04.142Z,0.00
2018-08-24T03:16:25.095Z,0.00
2018-08-24T03:17:03.995Z,0.00
2018-08-24T03:18:03.915Z,0.00
2018-08-24T03:19:03.849Z,0.00
2018-08-24T03:20:03.770Z,0.00
2018-08-24T03:21:03.699Z,0.00
2018-08-24T03:22:24.600Z,0.00
2018-08-24T03:23:03.551Z,0.00
2018-08-24T03:24:03.478Z,0.00
2018-08-24T03:25:03.404Z,0.00
2018-08-24T03:26:03.326Z,0.00
2018-08-24T03:27:03.265Z,0.00
2018-08-24T03:28:24.152Z,0.00
2018-08-24T03:29:03.123Z,0.00
2018-08-24T03:30:03.027Z,0.00
2018-08-24T03:31:02.970Z,0.00
2018-08-24T03:32:02.894Z,0.00
2018-08-24T03:33:02.823Z,0.00
2018-08-24T03:34:23.730Z,0.00
2018-08-24T03:35:02.674Z,0.00
2018-08-24T03:36:02.595Z,0.00
2018-08-24T03:37:02.537Z,0.00
2018-08-24T03:38:02.445Z,0.00
2018-08-24T03:39:02.378Z,0.00
2018-08-24T03:40:23.289Z,0.00
2018-08-24T03:41:02.237Z,0.00
2018-08-24T03:42:02.156Z,0.00
2018-08-24T03:43:02.158Z,0.00
2018-08-24T03:44:02.028Z,0.00
2018-08-24T03:45:01.955Z,0.00
2018-08-24T03:46:22.846Z,0.00
2018-08-24T03:47:01.799Z,0.00
2018-08-24T03:48:01.717Z,0.00
2018-08-24T03:49:01.648Z,0.00
2018-08-24T03:50:01.569Z,0.00
2018-08-24T03:51:01.583Z,0.00
2018-08-24T03:52:22.393Z,0.00
2018-08-24T03:53:01.401Z,0.00
2018-08-24T03:54:01.273Z,0.00
2018-08-24T03:55:01.216Z,0.00
2018-08-24T03:56:01.128Z,0.00
2018-08-24T03:57:01.107Z,0.00
2018-08-24T03:58:21.968Z,0.00
2018-08-24T03:59:00.919Z,0.00
2018-08-24T04:00:00.838Z,0.00
2018-08-24T04:01:00.833Z,0.00
2018-08-24T04:02:00.690Z,0.00
2018-08-24T04:03:00.633Z,0.00
2018-08-24T04:04:21.523Z,0.00
2018-08-24T04:05:00.545Z,0.00
2018-08-24T04:06:00.394Z,4.00
2018-08-24T04:07:00.358Z,0.00
2018-08-24T04:08:00.281Z,0.00
2018-08-24T04:09:00.271Z,0.00
2018-08-24T04:10:21.091Z,4.00
2018-08-24T04:11:00.040Z,4.00
2018-08-24T04:11:59.970Z,0.00
2018-08-24T04:12:59.903Z,4.00
2018-08-24T04:13:59.817Z,0.00
2018-08-24T04:14:59.745Z,4.00
2018-08-24T04:16:20.646Z,4.00
2018-08-24T04:16:59.609Z,4.00
2018-08-24T04:17:59.517Z,8.00
2018-08-24T04:18:59.458Z,8.00
2018-08-24T04:19:59.374Z,8.00
2018-08-24T04:20:59.311Z,8.00
2018-08-24T04:22:20.211Z,12.00
2018-08-24T04:22:59.162Z,8.00
2018-08-24T04:23:59.082Z,12.00
2018-08-24T04:24:59.015Z,16.00
2018-08-24T04:25:58.989Z,12.00
2018-08-24T04:26:58.865Z,16.00
2018-08-24T04:28:19.770Z,16.00
2018-08-24T04:28:58.728Z,20.00
2018-08-24T04:29:58.639Z,20.00
2018-08-24T04:30:58.583Z,24.00
2018-08-24T04:31:58.494Z,24.00
2018-08-24T04:32:58.433Z,28.00
2018-08-24T04:34:19.335Z,28.00
2018-08-24T04:34:58.312Z,32.00
2018-08-24T04:35:58.208Z,32.00
2018-08-24T04:36:58.136Z,32.00
2018-08-24T04:37:58.056Z,32.00
2018-08-24T04:38:57.998Z,36.00
2018-08-24T04:40:18.944Z,36.00
2018-08-24T04:40:57.854Z,36.00
2018-08-24T04:41:57.761Z,40.00
2018-08-24T04:42:57.704Z,40.00
2018-08-24T04:43:57.623Z,40.00
2018-08-24T04:44:57.564Z,36.00
2018-08-24T04:46:18.454Z,36.00
2018-08-24T04:46:57.407Z,32.00
2018-08-24T04:47:57.327Z,32.00
2018-08-24T04:48:57.268Z,28.00
2018-08-24T04:49:57.184Z,28.00
2018-08-24T04:50:57.113Z,28.00
2018-08-24T04:52:18.019Z,24.00
2018-08-24T04:52:56.972Z,24.00
2018-08-24T04:53:56.897Z,28.00
2018-08-24T04:54:56.827Z,32.00
2018-08-24T04:55:56.745Z,36.00
2018-08-24T04:56:56.676Z,40.00
2018-08-24T04:58:17.623Z,44.00
2018-08-24T04:58:56.529Z,48.00
2018-08-24T04:59:56.452Z,56.00
2018-08-24T05:00:56.378Z,64.00
2018-08-24T05:01:56.301Z,68.00
2018-08-24T05:02:56.249Z,76.00
2018-08-24T05:04:17.156Z,84.00
2018-08-24T05:04:56.094Z,92.00
2018-08-24T05:05:56.013Z,100.00
2018-08-24T05:06:55.950Z,108.00
2018-08-24T05:07:55.868Z,116.00
2018-08-24T05:08:55.801Z,128.00
2018-08-24T05:10:16.705Z,140.00
2018-08-24T05:10:55.656Z,144.00
2018-08-24T05:11:55.575Z,156.00
2018-08-24T05:12:55.512Z,164.00
2018-08-24T05:13:55.432Z,168.00
2018-08-24T05:14:55.364Z,172.00
2018-08-24T05:16:16.269Z,168.00
2018-08-24T05:16:55.218Z,160.00
2018-08-24T05:17:55.140Z,164.00
2018-08-24T05:18:55.069Z,164.00
2018-08-24T05:19:54.991Z,164.00
2018-08-24T05:20:54.923Z,160.00
2018-08-24T05:22:15.824Z,160.00
2018-08-24T05:22:54.773Z,164.00
2018-08-24T05:23:54.691Z,176.00
2018-08-24T05:24:54.731Z,188.00
2018-08-24T05:25:54.565Z,188.00
2018-08-24T05:26:54.490Z,180.00
2018-08-24T05:28:15.469Z,172.00
2018-08-24T05:28:54.340Z,172.00
2018-08-24T05:29:54.256Z,168.00
2018-08-24T05:30:54.194Z,160.00
2018-08-24T05:31:54.125Z,156.00
2018-08-24T05:32:54.040Z,156.00
2018-08-24T05:34:14.966Z,156.00
2018-08-24T05:34:53.911Z,160.00
2018-08-24T05:35:53.826Z,164.00
2018-08-24T05:36:53.758Z,160.00
2018-08-24T05:37:53.678Z,160.00
2018-08-24T05:38:53.615Z,168.00
2018-08-24T05:40:14.505Z,180.00
2018-08-24T05:40:53.461Z,188.00
2018-08-24T05:41:53.379Z,188.00
2018-08-24T05:42:53.315Z,184.00
2018-08-24T05:43:53.235Z,192.00
2018-08-24T05:44:53.179Z,204.00
2018-08-24T05:46:14.077Z,208.00
2018-08-24T05:46:53.037Z,216.00
2018-08-24T05:47:52.948Z,216.00
2018-08-24T05:48:52.929Z,212.00
2018-08-24T05:49:52.807Z,208.00
2018-08-24T05:50:52.751Z,204.00
2018-08-24T05:52:13.753Z,204.00
2018-08-24T05:52:52.584Z,212.00
2018-08-24T05:53:52.524Z,224.00
2018-08-24T05:54:52.472Z,236.00
2018-08-24T05:55:52.366Z,252.00
2018-08-24T05:56:52.312Z,260.00
2018-08-24T05:58:13.212Z,264.00
2018-08-24T05:58:52.150Z,272.00
2018-08-24T05:59:52.071Z,272.00
2018-08-24T06:00:52.014Z,284.00
2018-08-24T06:01:51.937Z,292.00
2018-08-24T06:02:51.913Z,308.00
2018-08-24T06:04:12.768Z,328.00
2018-08-24T06:04:51.712Z,348.00
2018-08-24T06:05:51.716Z,364.00
2018-08-24T06:06:51.642Z,376.00
2018-08-24T06:07:51.494Z,392.00
2018-08-24T06:08:51.434Z,408.00
2018-08-24T06:10:12.442Z,420.00
2018-08-24T06:10:51.268Z,432.00
2018-08-24T06:11:51.219Z,444.00
2018-08-24T06:12:51.164Z,460.00
2018-08-24T06:13:51.059Z,464.00
2018-08-24T06:14:51.079Z,460.00
2018-08-24T06:16:11.902Z,452.00
2018-08-24T06:16:50.956Z,440.00
2018-08-24T06:17:50.770Z,420.00
2018-08-24T06:18:50.787Z,408.00
2018-08-24T06:19:50.623Z,396.00
2018-08-24T06:20:50.566Z,392.00
2018-08-24T06:22:11.468Z,392.00
2018-08-24T06:22:50.514Z,404.00
2018-08-24T06:23:50.346Z,420.00
2018-08-24T06:24:50.317Z,420.00
2018-08-24T06:25:50.192Z,432.00
2018-08-24T06:26:50.464Z,444.00
2018-08-24T06:28:11.027Z,452.00
2018-08-24T06:28:50.042Z,460.00
2018-08-24T06:29:49.905Z,476.00
2018-08-24T06:30:49.853Z,476.00
2018-08-24T06:31:49.752Z,488.00
2018-08-24T06:32:49.846Z,488.00
2018-08-24T06:34:10.603Z,496.00
2018-08-24T06:34:49.595Z,500.00
2018-08-24T06:35:49.471Z,496.00
2018-08-24T06:36:49.483Z,500.00
2018-08-24T06:37:49.322Z,504.00
2018-08-24T06:38:49.292Z,512.00
2018-08-24T06:40:10.169Z,532.00
2018-08-24T06:40:49.104Z,528.00
2018-08-24T06:41:49.056Z,540.00
2018-08-24T06:42:49.027Z,540.00
2018-08-24T06:43:48.883Z,532.00
2018-08-24T06:44:48.830Z,520.00
2018-08-24T06:46:09.830Z,508.00
2018-08-24T06:46:48.670Z,500.00
2018-08-24T06:47:48.690Z,496.00
2018-08-24T06:48:48.545Z,492.00
2018-08-24T06:49:48.465Z,496.00
2018-08-24T06:50:48.464Z,500.00
2018-08-24T06:52:09.294Z,508.00
2018-08-24T06:52:48.237Z,504.00
2018-08-24T06:53:48.278Z,508.00
2018-08-24T06:54:48.110Z,504.00
2018-08-24T06:55:48.029Z,504.00
2018-08-24T06:56:47.986Z,500.00
2018-08-24T06:58:08.873Z,508.00
2018-08-24T06:58:47.815Z,520.00
2018-08-24T06:59:47.863Z,532.00
2018-08-24T07:00:47.674Z,536.00
2018-08-24T07:01:47.598Z,528.00
2018-08-24T07:02:47.626Z,524.00
2018-08-24T07:04:08.438Z,508.00
2018-08-24T07:04:47.443Z,488.00
2018-08-24T07:05:47.320Z,476.00
2018-08-24T07:06:47.244Z,472.00
2018-08-24T07:07:47.251Z,468.00
2018-08-24T07:08:47.107Z,468.00
2018-08-24T07:10:08.014Z,468.00
2018-08-24T07:10:47.068Z,504.00
2018-08-24T07:11:46.885Z,564.00
2018-08-24T07:12:46.926Z,620.00
2018-08-24T07:13:46.730Z,664.00
2018-08-24T07:14:46.790Z,704.00
2018-08-24T07:16:07.581Z,752.00
2018-08-24T07:16:46.602Z,788.00
2018-08-24T07:17:46.442Z,776.00
2018-08-24T07:18:46.382Z,756.00
2018-08-24T07:19:46.418Z,800.00
2018-08-24T07:20:46.235Z,956.00
2018-08-24T07:22:07.150Z,976.00
2018-08-24T07:22:46.140Z,828.00
2018-08-24T07:23:46.005Z,792.00
2018-08-24T07:24:45.949Z,772.00
2018-08-24T07:25:45.944Z,688.00
2018-08-24T07:26:45.814Z,660.00
2018-08-24T07:28:06.845Z,672.00
2018-08-24T07:28:45.656Z,704.00
2018-08-24T07:29:45.598Z,704.00
2018-08-24T07:30:45.529Z,692.00
2018-08-24T07:31:45.448Z,644.00
2018-08-24T07:32:45.481Z,616.00
2018-08-24T07:34:06.287Z,616.00
2018-08-24T07:34:45.243Z,644.00
2018-08-24T07:35:45.287Z,608.00
2018-08-24T07:36:45.126Z,612.00
2018-08-24T07:37:45.063Z,632.00
2018-08-24T07:38:45.050Z,652.00
2018-08-24T07:40:05.870Z,656.00
2018-08-24T07:40:44.806Z,640.00
2018-08-24T07:41:44.878Z,620.00
2018-08-24T07:42:44.659Z,716.00
2018-08-24T07:43:44.640Z,584.00
2018-08-24T07:44:44.537Z,576.00
2018-08-24T07:46:05.542Z,552.00
2018-08-24T07:46:44.385Z,584.00
2018-08-24T07:47:44.314Z,612.00
2018-08-24T07:48:44.364Z,612.00
2018-08-24T07:49:44.165Z,620.00
2018-08-24T07:50:44.113Z,708.00
2018-08-24T07:52:05.068Z,700.00
2018-08-24T07:52:43.948Z,560.00
2018-08-24T07:53:43.881Z,520.00
2018-08-24T07:54:43.811Z,500.00
2018-08-24T07:55:43.790Z,480.00
2018-08-24T07:56:43.665Z,456.00
2018-08-24T07:58:04.594Z,436.00
2018-08-24T07:58:43.519Z,420.00
2018-08-24T07:59:43.448Z,408.00
2018-08-24T08:00:43.377Z,408.00
2018-08-24T08:01:43.427Z,412.00
2018-08-24T08:02:43.225Z,388.00
2018-08-24T08:04:04.231Z,340.00
2018-08-24T08:04:43.114Z,300.00
2018-08-24T08:05:43.154Z,280.00
2018-08-24T08:06:42.954Z,280.00
2018-08-24T08:07:42.966Z,284.00
2018-08-24T08:08:42.804Z,296.00
2018-08-24T08:10:03.866Z,320.00
2018-08-24T08:10:42.666Z,356.00
2018-08-24T08:11:42.676Z,388.00
2018-08-24T08:12:42.624Z,404.00
2018-08-24T08:13:42.460Z,396.00
2018-08-24T08:14:42.490Z,384.00
2018-08-24T08:16:03.301Z,368.00
2018-08-24T08:16:42.242Z,348.00
2018-08-24T08:17:42.167Z,344.00
2018-08-24T08:18:42.148Z,360.00
2018-08-24T08:19:42.040Z,408.00
2018-08-24T08:20:42.028Z,468.00
2018-08-24T08:22:02.879Z,536.00
2018-08-24T08:22:41.938Z,620.00
2018-08-24T08:23:41.739Z,712.00
2018-08-24T08:24:41.738Z,792.00
2018-08-24T08:25:41.620Z,868.00
2018-08-24T08:26:41.658Z,1012.00
2018-08-24T08:28:02.441Z,1040.00
2018-08-24T08:28:41.401Z,1332.00
2018-08-24T08:29:41.368Z,1124.00
2018-08-24T08:30:41.251Z,1084.00
2018-08-24T08:31:41.177Z,1092.00
2018-08-24T08:32:41.184Z,2224.00
2018-08-24T08:34:02.020Z,1876.00
2018-08-24T08:34:40.973Z,1352.00
2018-08-24T08:35:41.004Z,1992.00
2018-08-24T08:36:40.823Z,1664.00
2018-08-24T08:37:40.757Z,2956.00
2018-08-24T08:38:40.814Z,3016.00
2018-08-24T08:40:01.598Z,2380.00
2018-08-24T08:40:40.550Z,1388.00
2018-08-24T08:41:40.479Z,1236.00
2018-08-24T08:42:40.388Z,1220.00
2018-08-24T08:43:40.316Z,1680.00
2018-08-24T08:44:40.337Z,2364.00
2018-08-24T08:46:01.172Z,1768.00
2018-08-24T08:46:40.258Z,784.00
2018-08-24T08:47:40.044Z,728.00
2018-08-24T08:48:39.983Z,720.00
2018-08-24T08:49:39.976Z,764.00
2018-08-24T08:50:39.840Z,976.00
2018-08-24T08:52:00.747Z,1196.00
2018-08-24T08:52:39.702Z,2296.00
2018-08-24T08:53:39.691Z,1504.00
2018-08-24T08:54:39.565Z,1544.00
2018-08-24T08:55:39.493Z,1760.00
2018-08-24T08:56:39.503Z,1356.00
2018-08-24T08:58:00.327Z,1088.00
2018-08-24T08:58:39.285Z,988.00
2018-08-24T08:59:39.328Z,920.00
2018-08-24T09:00:39.128Z,948.00
2018-08-24T09:01:39.066Z,984.00
2018-08-24T09:02:39.144Z,920.00
2018-08-24T09:03:59.917Z,928.00
2018-08-24T09:04:38.866Z,964.00
2018-08-24T09:05:38.852Z,1408.00
2018-08-24T09:06:38.714Z,868.00
2018-08-24T09:07:38.651Z,860.00
2018-08-24T09:08:38.668Z,932.00
2018-08-24T09:09:59.487Z,1980.00
2018-08-24T09:10:38.445Z,2656.00
2018-08-24T09:11:38.373Z,1712.00
2018-08-24T09:12:38.302Z,3004.00
2018-08-24T09:13:38.234Z,3016.00
2018-08-24T09:14:38.203Z,3376.00
2018-08-24T09:15:59.078Z,3232.00
2018-08-24T09:16:38.024Z,1408.00
2018-08-24T09:17:38.015Z,1824.00
2018-08-24T09:18:37.886Z,2884.00
2018-08-24T09:19:37.812Z,2044.00
2018-08-24T09:20:37.743Z,2580.00
2018-08-24T09:21:58.665Z,1744.00
2018-08-24T09:22:37.621Z,1636.00
2018-08-24T09:23:37.640Z,1444.00
2018-08-24T09:24:37.469Z,1560.00
2018-08-24T09:25:37.441Z,1036.00
2018-08-24T09:26:37.465Z,976.00
2018-08-24T09:27:58.236Z,876.00
2018-08-24T09:28:37.200Z,784.00
2018-08-24T09:29:37.113Z,704.00
2018-08-24T09:30:37.059Z,668.00
2018-08-24T09:31:36.979Z,736.00
2018-08-24T09:32:37.044Z,896.00
2018-08-24T09:33:57.822Z,1208.00
2018-08-24T09:34:36.931Z,2284.00
2018-08-24T09:35:36.700Z,2812.00
2018-08-24T09:36:36.637Z,2592.00
2018-08-24T09:37:36.716Z,1768.00
2018-08-24T09:38:36.499Z,3184.00
2018-08-24T09:39:57.517Z,3144.00
2018-08-24T09:40:36.358Z,3036.00
2018-08-24T09:41:36.303Z,2844.00
2018-08-24T09:42:36.223Z,2792.00
2018-08-24T09:43:36.151Z,2904.00
2018-08-24T09:44:36.092Z,2616.00
2018-08-24T09:45:56.998Z,1064.00
2018-08-24T09:46:36.066Z,872.00
2018-08-24T09:47:35.885Z,1044.00
2018-08-24T09:48:35.816Z,1240.00
2018-08-24T09:49:35.881Z,1784.00
2018-08-24T09:50:35.669Z,744.00
2018-08-24T09:51:56.590Z,640.00
2018-08-24T09:52:35.701Z,584.00
2018-08-24T09:53:35.471Z,568.00
2018-08-24T09:54:35.512Z,532.00
2018-08-24T09:55:35.336Z,436.00
2018-08-24T09:56:35.266Z,372.00
2018-08-24T09:57:56.318Z,332.00
2018-08-24T09:58:35.126Z,308.00
2018-08-24T09:59:35.148Z,284.00
2018-08-24T10:00:34.988Z,288.00
2018-08-24T10:01:34.932Z,296.00
2018-08-24T10:02:34.898Z,316.00
2018-08-24T10:03:55.772Z,364.00
2018-08-24T10:04:34.866Z,432.00
2018-08-24T10:05:34.654Z,504.00
2018-08-24T10:06:34.599Z,528.00
2018-08-24T10:07:34.675Z,504.00
2018-08-24T10:08:34.449Z,464.00
2018-08-24T10:09:55.368Z,432.00
2018-08-24T10:10:34.393Z,416.00
2018-08-24T10:11:34.240Z,356.00
2018-08-24T10:12:34.179Z,304.00
2018-08-24T10:13:34.203Z,260.00
2018-08-24T10:14:34.037Z,244.00
2018-08-24T10:15:54.956Z,248.00
2018-08-24T10:16:34.027Z,268.00
2018-08-24T10:17:33.829Z,288.00
2018-08-24T10:18:33.928Z,300.00
2018-08-24T10:19:33.688Z,308.00
2018-08-24T10:20:33.624Z,300.00
2018-08-24T10:21:54.539Z,288.00
2018-08-24T10:22:33.651Z,280.00
2018-08-24T10:23:33.409Z,272.00
2018-08-24T10:24:33.354Z,264.00
2018-08-24T10:25:33.288Z,248.00
2018-08-24T10:26:33.220Z,236.00
2018-08-24T10:27:54.266Z,224.00
2018-08-24T10:28:33.067Z,208.00
2018-08-24T10:29:33.060Z,200.00
2018-08-24T10:30:33.085Z,228.00
2018-08-24T10:31:32.880Z,272.00
2018-08-24T10:32:32.902Z,304.00
2018-08-24T10:33:53.750Z,308.00
2018-08-24T10:34:32.815Z,308.00
2018-08-24T10:35:32.595Z,312.00
2018-08-24T10:36:32.627Z,324.00
2018-08-24T10:37:32.450Z,340.00
2018-08-24T10:38:32.385Z,360.00
2018-08-24T10:39:53.297Z,376.00
2018-08-24T10:40:32.341Z,380.00
2018-08-24T10:41:32.188Z,372.00
2018-08-24T10:42:32.114Z,364.00
2018-08-24T10:43:32.052Z,360.00
2018-08-24T10:44:32.062Z,352.00
2018-08-24T10:45:52.880Z,336.00
2018-08-24T10:46:31.836Z,308.00
2018-08-24T10:47:31.778Z,292.00
2018-08-24T10:48:31.688Z,284.00
2018-08-24T10:49:31.714Z,284.00
2018-08-24T10:50:31.593Z,292.00
2018-08-24T10:51:52.471Z,332.00
2018-08-24T10:52:31.416Z,392.00
2018-08-24T10:53:31.516Z,460.00
2018-08-24T10:54:31.285Z,528.00
2018-08-24T10:55:31.228Z,612.00
2018-08-24T10:56:31.149Z,704.00
2018-08-24T10:57:52.227Z,792.00
2018-08-24T10:58:31.001Z,888.00
2018-08-24T10:59:30.925Z,916.00
2018-08-24T11:00:30.860Z,976.00
2018-08-24T11:01:30.789Z,1196.00
2018-08-24T11:02:30.725Z,2332.00
2018-08-24T11:03:51.646Z,1056.00
2018-08-24T11:04:30.584Z,928.00
2018-08-24T11:05:30.603Z,976.00
2018-08-24T11:06:30.476Z,2204.00
2018-08-24T11:07:30.555Z,652.00
2018-08-24T11:08:30.311Z,504.00
2018-08-24T11:09:51.230Z,428.00
2018-08-24T11:10:30.214Z,444.00
2018-08-24T11:11:30.097Z,532.00
2018-08-24T11:12:30.105Z,632.00
2018-08-24T11:13:29.955Z,756.00
2018-08-24T11:14:29.892Z,848.00
2018-08-24T11:15:50.916Z,2140.00
2018-08-24T11:16:29.746Z,1328.00
2018-08-24T11:17:29.691Z,2288.00
2018-08-24T11:18:29.612Z,1004.00
2018-08-24T11:19:29.642Z,924.00
2018-08-24T11:20:29.472Z,956.00
2018-08-24T11:21:50.446Z,2088.00
2018-08-24T11:22:29.339Z,2164.00
2018-08-24T11:23:29.370Z,952.00
2018-08-24T11:24:29.210Z,952.00
2018-08-24T11:25:29.180Z,800.00
2018-08-24T11:26:29.067Z,720.00
2018-08-24T11:27:50.085Z,628.00
2018-08-24T11:28:28.949Z,572.00
2018-08-24T11:29:28.927Z,564.00
2018-08-24T11:30:28.787Z,580.00
2018-08-24T11:31:28.801Z,624.00
2018-08-24T11:32:28.653Z,668.00
2018-08-24T11:33:49.635Z,688.00
2018-08-24T11:34:28.520Z,688.00
2018-08-24T11:35:28.441Z,640.00
2018-08-24T11:36:28.478Z,608.00
2018-08-24T11:37:28.315Z,584.00
2018-08-24T11:38:28.341Z,580.00
2018-08-24T11:39:49.154Z,600.00
2018-08-24T11:40:28.115Z,600.00
2018-08-24T11:41:28.053Z,588.00
2018-08-24T11:42:27.974Z,576.00
2018-08-24T11:43:27.904Z,596.00
2018-08-24T11:44:27.875Z,664.00
2018-08-24T11:45:48.736Z,752.00
2018-08-24T11:46:27.698Z,824.00
2018-08-24T11:47:27.688Z,880.00
2018-08-24T11:48:27.549Z,908.00
2018-08-24T11:49:27.492Z,876.00
2018-08-24T11:50:27.501Z,840.00
2018-08-24T11:51:48.338Z,804.00
2018-08-24T11:52:27.286Z,788.00
2018-08-24T11:53:27.325Z,784.00
2018-08-24T11:54:27.173Z,768.00
2018-08-24T11:55:27.127Z,744.00
2018-08-24T11:56:27.009Z,720.00
2018-08-24T11:57:47.931Z,700.00
2018-08-24T11:58:26.860Z,688.00
2018-08-24T11:59:26.804Z,728.00
2018-08-24T12:00:26.745Z,820.00
2018-08-24T12:01:26.766Z,928.00
2018-08-24T12:02:26.594Z,1024.00
2018-08-24T12:03:47.565Z,1020.00
2018-08-24T12:04:26.460Z,988.00
2018-08-24T12:05:26.389Z,964.00
2018-08-24T12:06:26.392Z,996.00
2018-08-24T12:07:26.248Z,1156.00
2018-08-24T12:08:26.401Z,1032.00
2018-08-24T12:09:47.088Z,1008.00
2018-08-24T12:10:26.053Z,964.00
2018-08-24T12:11:26.013Z,964.00
2018-08-24T12:12:25.973Z,1032.00
2018-08-24T12:13:25.850Z,1828.00
2018-08-24T12:14:25.834Z,928.00
2018-08-24T12:15:46.683Z,836.00
2018-08-24T12:16:25.639Z,764.00
2018-08-24T12:17:25.642Z,688.00
2018-08-24T12:18:25.550Z,620.00
2018-08-24T12:19:25.432Z,564.00
2018-08-24T12:20:25.464Z,516.00
2018-08-24T12:21:46.284Z,484.00
2018-08-24T12:22:25.230Z,432.00
2018-08-24T12:23:25.177Z,388.00
2018-08-24T12:24:25.134Z,368.00
2018-08-24T12:25:25.014Z,384.00
2018-08-24T12:26:24.990Z,420.00
2018-08-24T12:27:45.861Z,472.00
2018-08-24T12:28:24.824Z,524.00
2018-08-24T12:29:24.803Z,524.00
2018-08-24T12:30:24.688Z,512.00
2018-08-24T12:31:24.619Z,496.00
2018-08-24T12:32:24.628Z,464.00
2018-08-24T12:33:45.466Z,440.00
2018-08-24T12:34:24.409Z,468.00
2018-08-24T12:35:24.438Z,536.00
2018-08-24T12:36:24.270Z,624.00
2018-08-24T12:37:24.250Z,924.00
2018-08-24T12:38:24.131Z,1196.00
2018-08-24T12:39:45.055Z,1252.00
2018-08-24T12:40:24.064Z,1512.00
2018-08-24T12:41:24.048Z,1920.00
2018-08-24T12:42:23.974Z,2100.00